sensor_id;sensor_type;location;lat;lon;timestamp;P1;durP1;ratioP1;P2;durP2;ratioP2
26335;SDS011;14047;50.936;4.654;2023-06-22T00:20:25;8.52;;;4.43;;
26335;SDS011;14047;50.936;4.654;2023-06-22T00:22:53;6.80;;;3.67;;
26335;SDS011;14047;50.936;4.654;2023-06-22T00:25:20;7.25;;;4.30;;
26335;SDS011;14047;50.936;4.654;2023-06-22T00:52:51;8.25;;;4.40;;
26335;SDS011;14047;50.936;4.654;2023-06-22T00:55:19;6.78;;;4.07;;
26335;SDS011;14047;50.936;4.654;2023-06-22T00:57:46;5.65;;;4.00;;
26335;SDS011;14047;50.936;4.654;2023-06-22T01:00:14;5.55;;;4.57;;
26335;SDS011;14047;50.936;4.654;2023-06-22T01:02:45;8.05;;;4.43;;
26335;SDS011;14047;50.936;4.654;2023-06-22T01:05:13;6.47;;;3.90;;
26335;SDS011;14047;50.936;4.654;2023-06-22T01:07:42;9.25;;;4.10;;
26335;SDS011;14047;50.936;4.654;2023-06-22T01:13:22;8.43;;;4.18;;
26335;SDS011;14047;50.936;4.654;2023-06-22T01:16:02;5.75;;;4.20;;
26335;SDS011;14047;50.936;4.654;2023-06-22T01:18:33;7.30;;;4.25;;
26335;SDS011;14047;50.936;4.654;2023-06-22T01:21:02;8.75;;;4.63;;
26335;SDS011;14047;50.936;4.654;2023-06-22T01:23:42;6.63;;;4.30;;
26335;SDS011;14047;50.936;4.654;2023-06-22T01:26:18;7.22;;;4.57;;
26335;SDS011;14047;50.936;4.654;2023-06-22T01:28:54;7.22;;;4.50;;
26335;SDS011;14047;50.936;4.654;2023-06-22T01:31:23;5.72;;;4.20;;
26335;SDS011;14047;50.936;4.654;2023-06-22T01:33:53;7.45;;;4.68;;
26335;SDS011;14047;50.936;4.654;2023-06-22T01:36:22;8.43;;;4.22;;
26335;SDS011;14047;50.936;4.654;2023-06-22T01:38:50;7.75;;;4.40;;
26335;SDS011;14047;50.936;4.654;2023-06-22T01:41:18;8.07;;;4.38;;
26335;SDS011;14047;50.936;4.654;2023-06-22T01:43:46;8.43;;;4.28;;
26335;SDS011;14047;50.936;4.654;2023-06-22T01:46:13;8.02;;;4.55;;
26335;SDS011;14047;50.936;4.654;2023-06-22T01:48:40;8.30;;;4.30;;
26335;SDS011;14047;50.936;4.654;2023-06-22T01:51:06;5.95;;;4.25;;
26335;SDS011;14047;50.936;4.654;2023-06-22T01:53:32;9.23;;;4.38;;
26335;SDS011;14047;50.936;4.654;2023-06-22T01:55:58;10.43;;;4.50;;
26335;SDS011;14047;50.936;4.654;2023-06-22T01:58:28;9.23;;;4.13;;
26335;SDS011;14047;50.936;4.654;2023-06-22T02:00:56;8.98;;;4.25;;
26335;SDS011;14047;50.936;4.654;2023-06-22T02:03:35;6.07;;;4.50;;
26335;SDS011;14047;50.936;4.654;2023-06-22T02:06:10;6.43;;;4.88;;
26335;SDS011;14047;50.936;4.654;2023-06-22T02:08:56;8.02;;;5.05;;
26335;SDS011;14047;50.936;4.654;2023-06-22T02:11:26;8.75;;;5.22;;
26335;SDS011;14047;50.936;4.654;2023-06-22T02:13:53;9.35;;;5.30;;
26335;SDS011;14047;50.936;4.654;2023-06-22T02:16:23;9.57;;;5.40;;
26335;SDS011;14047;50.936;4.654;2023-06-22T02:18:49;8.00;;;5.30;;
26335;SDS011;14047;50.936;4.654;2023-06-22T02:21:19;9.73;;;5.40;;
26335;SDS011;14047;50.936;4.654;2023-06-22T02:23:46;7.72;;;5.50;;
26335;SDS011;14047;50.936;4.654;2023-06-22T02:26:12;6.28;;;5.07;;
26335;SDS011;14047;50.936;4.654;2023-06-22T02:28:38;8.80;;;5.35;;
26335;SDS011;14047;50.936;4.654;2023-06-22T02:31:04;9.80;;;5.30;;
26335;SDS011;14047;50.936;4.654;2023-06-22T02:33:30;6.72;;;5.18;;
26335;SDS011;14047;50.936;4.654;2023-06-22T02:35:57;10.82;;;5.55;;
26335;SDS011;14047;50.936;4.654;2023-06-22T02:38:22;9.07;;;5.93;;
26335;SDS011;14047;50.936;4.654;2023-06-22T02:40:50;9.15;;;5.90;;
26335;SDS011;14047;50.936;4.654;2023-06-22T02:43:16;9.95;;;5.80;;
26335;SDS011;14047;50.936;4.654;2023-06-22T02:45:43;10.02;;;5.60;;
26335;SDS011;14047;50.936;4.654;2023-06-22T02:48:10;9.23;;;5.63;;
26335;SDS011;14047;50.936;4.654;2023-06-22T02:50:36;8.95;;;5.72;;
26335;SDS011;14047;50.936;4.654;2023-06-22T02:53:03;6.80;;;5.05;;
26335;SDS011;14047;50.936;4.654;2023-06-22T02:55:34;9.20;;;5.78;;
26335;SDS011;14047;50.936;4.654;2023-06-22T02:58:00;6.85;;;5.35;;
26335;SDS011;14047;50.936;4.654;2023-06-22T03:00:31;11.68;;;6.03;;
26335;SDS011;14047;50.936;4.654;2023-06-22T03:02:57;10.52;;;6.18;;
26335;SDS011;14047;50.936;4.654;2023-06-22T03:05:23;10.68;;;6.35;;
26335;SDS011;14047;50.936;4.654;2023-06-22T03:07:49;10.75;;;6.22;;
26335;SDS011;14047;50.936;4.654;2023-06-22T03:10:16;8.73;;;6.18;;
26335;SDS011;14047;50.936;4.654;2023-06-22T03:12:42;9.60;;;6.18;;
26335;SDS011;14047;50.936;4.654;2023-06-22T03:15:09;8.63;;;5.72;;
26335;SDS011;14047;50.936;4.654;2023-06-22T03:17:37;10.98;;;6.63;;
26335;SDS011;14047;50.936;4.654;2023-06-22T03:20:08;11.57;;;6.18;;
26335;SDS011;14047;50.936;4.654;2023-06-22T03:22:39;12.80;;;7.03;;
26335;SDS011;14047;50.936;4.654;2023-06-22T03:25:06;11.95;;;7.10;;
26335;SDS011;14047;50.936;4.654;2023-06-22T03:27:39;9.25;;;6.95;;
26335;SDS011;14047;50.936;4.654;2023-06-22T03:30:07;11.35;;;6.95;;
26335;SDS011;14047;50.936;4.654;2023-06-22T03:32:35;12.43;;;6.80;;
26335;SDS011;14047;50.936;4.654;2023-06-22T03:35:01;8.40;;;6.13;;
26335;SDS011;14047;50.936;4.654;2023-06-22T03:37:27;13.90;;;6.53;;
26335;SDS011;14047;50.936;4.654;2023-06-22T03:39:54;11.18;;;7.07;;
26335;SDS011;14047;50.936;4.654;2023-06-22T03:42:20;10.30;;;6.60;;
26335;SDS011;14047;50.936;4.654;2023-06-22T03:44:49;14.60;;;7.93;;
26335;SDS011;14047;50.936;4.654;2023-06-22T03:47:15;13.02;;;7.57;;
26335;SDS011;14047;50.936;4.654;2023-06-22T03:49:41;10.20;;;7.07;;
26335;SDS011;14047;50.936;4.654;2023-06-22T03:52:07;11.90;;;8.02;;
26335;SDS011;14047;50.936;4.654;2023-06-22T03:54:33;9.23;;;6.72;;
26335;SDS011;14047;50.936;4.654;2023-06-22T03:56:59;18.75;;;8.65;;
26335;SDS011;14047;50.936;4.654;2023-06-22T03:59:25;11.93;;;7.95;;
26335;SDS011;14047;50.936;4.654;2023-06-22T04:01:51;13.20;;;7.70;;
26335;SDS011;14047;50.936;4.654;2023-06-22T04:04:17;12.35;;;7.95;;
26335;SDS011;14047;50.936;4.654;2023-06-22T04:06:43;11.75;;;8.27;;
26335;SDS011;14047;50.936;4.654;2023-06-22T04:09:09;20.30;;;8.27;;
26335;SDS011;14047;50.936;4.654;2023-06-22T04:11:35;13.30;;;8.15;;
26335;SDS011;14047;50.936;4.654;2023-06-22T04:14:01;13.93;;;8.18;;
26335;SDS011;14047;50.936;4.654;2023-06-22T04:16:27;13.00;;;8.20;;
26335;SDS011;14047;50.936;4.654;2023-06-22T04:18:53;16.63;;;8.82;;
26335;SDS011;14047;50.936;4.654;2023-06-22T04:21:19;14.68;;;7.57;;
26335;SDS011;14047;50.936;4.654;2023-06-22T04:23:45;14.15;;;7.25;;
26335;SDS011;14047;50.936;4.654;2023-06-22T04:26:12;14.38;;;7.38;;
26335;SDS011;14047;50.936;4.654;2023-06-22T04:28:39;13.70;;;7.63;;
26335;SDS011;14047;50.936;4.654;2023-06-22T04:31:06;14.02;;;7.65;;
26335;SDS011;14047;50.936;4.654;2023-06-22T04:33:32;10.15;;;7.82;;
26335;SDS011;14047;50.936;4.654;2023-06-22T04:35:58;14.00;;;7.63;;
26335;SDS011;14047;50.936;4.654;2023-06-22T04:38:27;16.70;;;9.13;;
26335;SDS011;14047;50.936;4.654;2023-06-22T04:40:53;13.38;;;8.40;;
26335;SDS011;14047;50.936;4.654;2023-06-22T04:43:20;14.23;;;9.40;;
26335;SDS011;14047;50.936;4.654;2023-06-22T04:45:46;14.90;;;8.30;;
26335;SDS011;14047;50.936;4.654;2023-06-22T04:48:17;16.48;;;7.93;;
26335;SDS011;14047;50.936;4.654;2023-06-22T04:50:43;11.82;;;8.32;;
26335;SDS011;14047;50.936;4.654;2023-06-22T04:53:10;14.23;;;7.72;;
26335;SDS011;14047;50.936;4.654;2023-06-22T04:55:38;15.05;;;8.75;;
26335;SDS011;14047;50.936;4.654;2023-06-22T04:58:07;20.00;;;8.45;;
26335;SDS011;14047;50.936;4.654;2023-06-22T05:00:33;13.82;;;8.70;;
26335;SDS011;14047;50.936;4.654;2023-06-22T05:03:01;20.60;;;8.65;;
26335;SDS011;14047;50.936;4.654;2023-06-22T05:05:28;14.98;;;8.75;;
26335;SDS011;14047;50.936;4.654;2023-06-22T05:07:56;21.25;;;9.35;;
26335;SDS011;14047;50.936;4.654;2023-06-22T05:10:25;19.45;;;8.85;;
26335;SDS011;14047;50.936;4.654;2023-06-22T05:12:51;20.55;;;10.07;;
26335;SDS011;14047;50.936;4.654;2023-06-22T05:15:17;15.90;;;10.02;;
26335;SDS011;14047;50.936;4.654;2023-06-22T05:17:47;17.13;;;10.15;;
26335;SDS011;14047;50.936;4.654;2023-06-22T05:20:13;13.07;;;9.25;;
26335;SDS011;14047;50.936;4.654;2023-06-22T05:22:39;17.67;;;9.63;;
26335;SDS011;14047;50.936;4.654;2023-06-22T05:25:07;17.77;;;10.10;;
26335;SDS011;14047;50.936;4.654;2023-06-22T05:27:35;15.55;;;9.38;;
26335;SDS011;14047;50.936;4.654;2023-06-22T05:30:08;13.18;;;9.23;;
26335;SDS011;14047;50.936;4.654;2023-06-22T05:32:35;18.67;;;10.05;;
26335;SDS011;14047;50.936;4.654;2023-06-22T05:35:02;15.88;;;9.25;;
26335;SDS011;14047;50.936;4.654;2023-06-22T05:37:28;14.30;;;10.35;;
26335;SDS011;14047;50.936;4.654;2023-06-22T05:39:54;19.30;;;10.57;;
26335;SDS011;14047;50.936;4.654;2023-06-22T05:42:21;19.42;;;10.68;;
26335;SDS011;14047;50.936;4.654;2023-06-22T05:44:47;17.75;;;10.85;;
26335;SDS011;14047;50.936;4.654;2023-06-22T05:47:13;18.35;;;10.70;;
26335;SDS011;14047;50.936;4.654;2023-06-22T05:49:39;18.23;;;10.07;;
26335;SDS011;14047;50.936;4.654;2023-06-22T05:52:05;19.80;;;10.35;;
26335;SDS011;14047;50.936;4.654;2023-06-22T05:54:31;16.92;;;9.55;;
26335;SDS011;14047;50.936;4.654;2023-06-22T05:56:57;15.15;;;9.38;;
26335;SDS011;14047;50.936;4.654;2023-06-22T05:59:22;20.73;;;10.55;;
26335;SDS011;14047;50.936;4.654;2023-06-22T06:01:48;14.40;;;10.25;;
26335;SDS011;14047;50.936;4.654;2023-06-22T06:04:16;17.40;;;10.80;;
26335;SDS011;14047;50.936;4.654;2023-06-22T06:06:45;14.35;;;10.45;;
26335;SDS011;14047;50.936;4.654;2023-06-22T06:09:12;17.55;;;10.90;;
26335;SDS011;14047;50.936;4.654;2023-06-22T06:11:41;18.88;;;11.30;;
26335;SDS011;14047;50.936;4.654;2023-06-22T06:14:07;17.42;;;11.00;;
26335;SDS011;14047;50.936;4.654;2023-06-22T06:16:33;13.50;;;10.45;;
26335;SDS011;14047;50.936;4.654;2023-06-22T06:18:59;17.05;;;11.50;;
26335;SDS011;14047;50.936;4.654;2023-06-22T06:21:25;14.63;;;10.82;;
26335;SDS011;14047;50.936;4.654;2023-06-22T06:23:51;16.35;;;11.25;;
26335;SDS011;14047;50.936;4.654;2023-06-22T06:26:18;20.17;;;11.23;;
26335;SDS011;14047;50.936;4.654;2023-06-22T06:28:53;15.90;;;10.93;;
26335;SDS011;14047;50.936;4.654;2023-06-22T06:31:20;18.70;;;10.70;;
26335;SDS011;14047;50.936;4.654;2023-06-22T06:33:46;16.02;;;11.25;;
26335;SDS011;14047;50.936;4.654;2023-06-22T06:36:12;15.73;;;10.38;;
26335;SDS011;14047;50.936;4.654;2023-06-22T06:38:38;19.35;;;11.65;;
26335;SDS011;14047;50.936;4.654;2023-06-22T06:41:04;17.48;;;11.57;;
26335;SDS011;14047;50.936;4.654;2023-06-22T06:43:30;18.30;;;11.77;;
26335;SDS011;14047;50.936;4.654;2023-06-22T06:45:55;22.52;;;12.20;;
26335;SDS011;14047;50.936;4.654;2023-06-22T06:48:21;20.15;;;12.45;;
26335;SDS011;14047;50.936;4.654;2023-06-22T06:50:47;25.17;;;12.32;;
26335;SDS011;14047;50.936;4.654;2023-06-22T06:53:13;18.83;;;13.27;;
26335;SDS011;14047;50.936;4.654;2023-06-22T06:55:39;18.70;;;13.35;;
26335;SDS011;14047;50.936;4.654;2023-06-22T06:58:05;17.25;;;13.07;;
26335;SDS011;14047;50.936;4.654;2023-06-22T07:00:33;20.48;;;13.05;;
26335;SDS011;14047;50.936;4.654;2023-06-22T07:02:59;19.80;;;12.80;;
26335;SDS011;14047;50.936;4.654;2023-06-22T07:05:25;20.45;;;12.85;;
26335;SDS011;14047;50.936;4.654;2023-06-22T07:07:51;19.88;;;12.55;;
26335;SDS011;14047;50.936;4.654;2023-06-22T07:10:18;18.33;;;12.15;;
26335;SDS011;14047;50.936;4.654;2023-06-22T07:12:44;17.90;;;13.20;;
26335;SDS011;14047;50.936;4.654;2023-06-22T07:15:10;17.25;;;13.15;;
26335;SDS011;14047;50.936;4.654;2023-06-22T07:17:38;19.42;;;12.65;;
26335;SDS011;14047;50.936;4.654;2023-06-22T07:20:07;20.95;;;13.15;;
26335;SDS011;14047;50.936;4.654;2023-06-22T07:22:35;19.70;;;13.75;;
26335;SDS011;14047;50.936;4.654;2023-06-22T07:25:02;25.60;;;13.93;;
26335;SDS011;14047;50.936;4.654;2023-06-22T07:27:38;17.90;;;12.63;;
26335;SDS011;14047;50.936;4.654;2023-06-22T07:30:08;19.25;;;12.90;;
26335;SDS011;14047;50.936;4.654;2023-06-22T07:32:34;19.10;;;12.85;;
26335;SDS011;14047;50.936;4.654;2023-06-22T07:35:00;24.05;;;13.43;;
26335;SDS011;14047;50.936;4.654;2023-06-22T07:37:30;22.83;;;12.80;;
26335;SDS011;14047;50.936;4.654;2023-06-22T07:39:58;19.73;;;12.55;;
26335;SDS011;14047;50.936;4.654;2023-06-22T07:42:27;20.65;;;12.38;;
26335;SDS011;14047;50.936;4.654;2023-06-22T07:44:58;16.60;;;12.52;;
26335;SDS011;14047;50.936;4.654;2023-06-22T07:47:23;20.50;;;13.30;;
26335;SDS011;14047;50.936;4.654;2023-06-22T07:49:53;19.05;;;12.25;;
26335;SDS011;14047;50.936;4.654;2023-06-22T07:52:26;19.13;;;11.93;;
26335;SDS011;14047;50.936;4.654;2023-06-22T07:54:52;21.08;;;12.10;;
26335;SDS011;14047;50.936;4.654;2023-06-22T07:57:19;20.10;;;13.70;;
26335;SDS011;14047;50.936;4.654;2023-06-22T07:59:45;19.17;;;13.05;;
26335;SDS011;14047;50.936;4.654;2023-06-22T08:02:11;19.42;;;13.15;;
26335;SDS011;14047;50.936;4.654;2023-06-22T08:04:37;12.93;;;11.02;;
26335;SDS011;14047;50.936;4.654;2023-06-22T08:07:04;18.63;;;11.32;;
26335;SDS011;14047;50.936;4.654;2023-06-22T08:09:30;15.10;;;10.07;;
26335;SDS011;14047;50.936;4.654;2023-06-22T08:11:57;14.55;;;10.15;;
26335;SDS011;14047;50.936;4.654;2023-06-22T08:14:25;14.23;;;9.85;;
26335;SDS011;14047;50.936;4.654;2023-06-22T08:16:51;15.25;;;10.00;;
26335;SDS011;14047;50.936;4.654;2023-06-22T08:19:17;12.60;;;8.50;;
26335;SDS011;14047;50.936;4.654;2023-06-22T08:21:43;12.20;;;7.72;;
26335;SDS011;14047;50.936;4.654;2023-06-22T08:24:09;11.05;;;7.97;;
26335;SDS011;14047;50.936;4.654;2023-06-22T08:26:36;12.48;;;7.03;;
26335;SDS011;14047;50.936;4.654;2023-06-22T08:29:03;10.07;;;7.13;;
26335;SDS011;14047;50.936;4.654;2023-06-22T08:31:29;12.07;;;6.72;;
26335;SDS011;14047;50.936;4.654;2023-06-22T08:33:56;11.07;;;7.70;;
26335;SDS011;14047;50.936;4.654;2023-06-22T08:36:22;9.73;;;6.90;;
26335;SDS011;14047;50.936;4.654;2023-06-22T08:38:48;8.60;;;6.25;;
26335;SDS011;14047;50.936;4.654;2023-06-22T08:41:16;10.70;;;6.90;;
26335;SDS011;14047;50.936;4.654;2023-06-22T08:43:43;12.68;;;7.10;;
26335;SDS011;14047;50.936;4.654;2023-06-22T08:46:12;9.63;;;6.97;;
26335;SDS011;14047;50.936;4.654;2023-06-22T08:48:38;11.43;;;6.85;;
26335;SDS011;14047;50.936;4.654;2023-06-22T08:51:04;10.30;;;7.60;;
26335;SDS011;14047;50.936;4.654;2023-06-22T08:53:30;12.55;;;7.22;;
26335;SDS011;14047;50.936;4.654;2023-06-22T08:55:56;9.10;;;7.05;;
26335;SDS011;14047;50.936;4.654;2023-06-22T08:58:22;10.20;;;7.28;;
26335;SDS011;14047;50.936;4.654;2023-06-22T09:00:49;10.23;;;7.03;;
26335;SDS011;14047;50.936;4.654;2023-06-22T09:03:16;9.73;;;7.40;;
26335;SDS011;14047;50.936;4.654;2023-06-22T09:05:42;10.93;;;6.97;;
26335;SDS011;14047;50.936;4.654;2023-06-22T09:08:08;8.38;;;6.63;;
26335;SDS011;14047;50.936;4.654;2023-06-22T09:10:36;13.75;;;7.70;;
26335;SDS011;14047;50.936;4.654;2023-06-22T09:13:02;14.43;;;7.72;;
26335;SDS011;14047;50.936;4.654;2023-06-22T09:15:28;12.27;;;6.95;;
26335;SDS011;14047;50.936;4.654;2023-06-22T09:17:54;10.35;;;6.68;;
26335;SDS011;14047;50.936;4.654;2023-06-22T09:20:20;10.93;;;6.65;;
26335;SDS011;14047;50.936;4.654;2023-06-22T09:22:46;17.30;;;6.63;;
26335;SDS011;14047;50.936;4.654;2023-06-22T09:25:15;11.38;;;6.65;;
26335;SDS011;14047;50.936;4.654;2023-06-22T09:27:41;11.30;;;6.53;;
26335;SDS011;14047;50.936;4.654;2023-06-22T09:30:07;15.52;;;6.30;;
26335;SDS011;14047;50.936;4.654;2023-06-22T09:32:33;13.90;;;6.32;;
26335;SDS011;14047;50.936;4.654;2023-06-22T09:35:01;8.68;;;6.20;;
26335;SDS011;14047;50.936;4.654;2023-06-22T09:37:30;9.27;;;5.60;;
26335;SDS011;14047;50.936;4.654;2023-06-22T09:39:56;8.25;;;5.82;;
26335;SDS011;14047;50.936;4.654;2023-06-22T09:42:22;11.98;;;7.15;;
26335;SDS011;14047;50.936;4.654;2023-06-22T09:44:48;12.40;;;6.65;;
26335;SDS011;14047;50.936;4.654;2023-06-22T09:47:14;14.02;;;7.57;;
26335;SDS011;14047;50.936;4.654;2023-06-22T09:49:40;12.45;;;7.47;;
26335;SDS011;14047;50.936;4.654;2023-06-22T09:52:06;14.18;;;7.68;;
26335;SDS011;14047;50.936;4.654;2023-06-22T09:54:32;10.52;;;7.47;;
26335;SDS011;14047;50.936;4.654;2023-06-22T09:56:58;16.92;;;8.75;;
26335;SDS011;14047;50.936;4.654;2023-06-22T09:59:24;17.80;;;9.35;;
26335;SDS011;14047;50.936;4.654;2023-06-22T10:01:50;15.13;;;8.32;;
26335;SDS011;14047;50.936;4.654;2023-06-22T10:04:16;14.50;;;9.07;;
26335;SDS011;14047;50.936;4.654;2023-06-22T10:06:42;13.60;;;8.35;;
26335;SDS011;14047;50.936;4.654;2023-06-22T10:09:08;15.45;;;9.60;;
26335;SDS011;14047;50.936;4.654;2023-06-22T10:11:34;17.25;;;10.75;;
26335;SDS011;14047;50.936;4.654;2023-06-22T10:14:00;18.15;;;11.07;;
26335;SDS011;14047;50.936;4.654;2023-06-22T10:16:31;19.30;;;11.93;;
26335;SDS011;14047;50.936;4.654;2023-06-22T10:18:57;19.73;;;13.00;;
26335;SDS011;14047;50.936;4.654;2023-06-22T10:21:23;18.77;;;13.10;;
26335;SDS011;14047;50.936;4.654;2023-06-22T10:23:49;20.73;;;14.65;;
26335;SDS011;14047;50.936;4.654;2023-06-22T10:26:15;23.45;;;16.08;;
26335;SDS011;14047;50.936;4.654;2023-06-22T10:28:41;21.23;;;14.30;;
26335;SDS011;14047;50.936;4.654;2023-06-22T10:31:07;19.55;;;14.85;;
26335;SDS011;14047;50.936;4.654;2023-06-22T10:33:33;18.40;;;13.50;;
26335;SDS011;14047;50.936;4.654;2023-06-22T10:35:59;18.63;;;13.95;;
26335;SDS011;14047;50.936;4.654;2023-06-22T10:38:25;17.23;;;12.82;;
26335;SDS011;14047;50.936;4.654;2023-06-22T10:40:51;18.67;;;13.90;;
26335;SDS011;14047;50.936;4.654;2023-06-22T10:43:17;18.25;;;13.10;;
26335;SDS011;14047;50.936;4.654;2023-06-22T10:45:43;18.42;;;13.10;;
26335;SDS011;14047;50.936;4.654;2023-06-22T10:48:09;21.77;;;14.20;;
26335;SDS011;14047;50.936;4.654;2023-06-22T10:50:35;20.80;;;14.00;;
26335;SDS011;14047;50.936;4.654;2023-06-22T10:53:00;23.20;;;15.43;;
26335;SDS011;14047;50.936;4.654;2023-06-22T10:55:26;22.30;;;15.40;;
26335;SDS011;14047;50.936;4.654;2023-06-22T10:57:52;25.75;;;17.05;;
26335;SDS011;14047;50.936;4.654;2023-06-22T11:00:18;20.77;;;15.85;;
26335;SDS011;14047;50.936;4.654;2023-06-22T11:02:44;24.65;;;17.58;;
26335;SDS011;14047;50.936;4.654;2023-06-22T11:05:10;27.38;;;19.45;;
26335;SDS011;14047;50.936;4.654;2023-06-22T11:07:37;26.45;;;18.83;;
26335;SDS011;14047;50.936;4.654;2023-06-22T11:10:03;30.40;;;22.17;;
26335;SDS011;14047;50.936;4.654;2023-06-22T11:12:30;34.20;;;24.25;;
26335;SDS011;14047;50.936;4.654;2023-06-22T11:14:56;40.05;;;25.63;;
26335;SDS011;14047;50.936;4.654;2023-06-22T11:17:22;38.80;;;26.75;;
26335;SDS011;14047;50.936;4.654;2023-06-22T11:19:48;43.90;;;30.77;;
26335;SDS011;14047;50.936;4.654;2023-06-22T11:22:15;48.92;;;31.25;;
26335;SDS011;14047;50.936;4.654;2023-06-22T11:24:41;42.75;;;29.33;;
26335;SDS011;14047;50.936;4.654;2023-06-22T11:27:07;49.38;;;33.53;;
26335;SDS011;14047;50.936;4.654;2023-06-22T11:29:33;46.00;;;31.67;;
26335;SDS011;14047;50.936;4.654;2023-06-22T11:31:59;47.17;;;32.13;;
26335;SDS011;14047;50.936;4.654;2023-06-22T11:34:25;45.35;;;32.22;;
26335;SDS011;14047;50.936;4.654;2023-06-22T11:36:51;44.53;;;32.42;;
26335;SDS011;14047;50.936;4.654;2023-06-22T11:39:17;44.90;;;32.83;;
26335;SDS011;14047;50.936;4.654;2023-06-22T11:41:43;48.63;;;34.33;;
26335;SDS011;14047;50.936;4.654;2023-06-22T11:44:09;45.40;;;33.80;;
26335;SDS011;14047;50.936;4.654;2023-06-22T11:46:35;44.42;;;32.92;;
26335;SDS011;14047;50.936;4.654;2023-06-22T11:49:01;49.78;;;32.33;;
26335;SDS011;14047;50.936;4.654;2023-06-22T11:51:27;47.78;;;32.80;;
26335;SDS011;14047;50.936;4.654;2023-06-22T11:53:56;51.25;;;34.80;;
26335;SDS011;14047;50.936;4.654;2023-06-22T11:56:23;47.88;;;35.00;;
26335;SDS011;14047;50.936;4.654;2023-06-22T11:58:49;50.72;;;33.67;;
26335;SDS011;14047;50.936;4.654;2023-06-22T12:01:15;51.42;;;34.33;;
26335;SDS011;14047;50.936;4.654;2023-06-22T12:03:41;48.40;;;33.03;;
26335;SDS011;14047;50.936;4.654;2023-06-22T12:06:09;41.90;;;31.33;;
26335;SDS011;14047;50.936;4.654;2023-06-22T12:08:35;43.40;;;30.63;;
26335;SDS011;14047;50.936;4.654;2023-06-22T12:11:01;44.20;;;29.70;;
26335;SDS011;14047;50.936;4.654;2023-06-22T12:13:27;42.70;;;29.85;;
26335;SDS011;14047;50.936;4.654;2023-06-22T12:15:52;42.13;;;31.05;;
26335;SDS011;14047;50.936;4.654;2023-06-22T12:18:19;46.85;;;31.10;;
26335;SDS011;14047;50.936;4.654;2023-06-22T12:20:46;42.65;;;30.02;;
26335;SDS011;14047;50.936;4.654;2023-06-22T12:23:12;44.95;;;32.30;;
26335;SDS011;14047;50.936;4.654;2023-06-22T12:25:39;42.10;;;31.67;;
26335;SDS011;14047;50.936;4.654;2023-06-22T12:28:05;42.67;;;30.10;;
26335;SDS011;14047;50.936;4.654;2023-06-22T12:30:34;44.50;;;32.15;;
26335;SDS011;14047;50.936;4.654;2023-06-22T12:33:00;41.45;;;31.88;;
26335;SDS011;14047;50.936;4.654;2023-06-22T12:35:26;46.92;;;32.38;;
26335;SDS011;14047;50.936;4.654;2023-06-22T12:37:52;46.72;;;32.58;;
26335;SDS011;14047;50.936;4.654;2023-06-22T12:40:18;51.67;;;33.20;;
26335;SDS011;14047;50.936;4.654;2023-06-22T12:42:44;47.97;;;32.63;;
26335;SDS011;14047;50.936;4.654;2023-06-22T12:45:10;52.35;;;32.75;;
26335;SDS011;14047;50.936;4.654;2023-06-22T12:47:36;45.72;;;32.83;;
26335;SDS011;14047;50.936;4.654;2023-06-22T12:50:02;46.45;;;31.40;;
26335;SDS011;14047;50.936;4.654;2023-06-22T12:52:30;50.95;;;34.30;;
26335;SDS011;14047;50.936;4.654;2023-06-22T12:54:57;49.28;;;33.42;;
26335;SDS011;14047;50.936;4.654;2023-06-22T12:57:23;44.58;;;31.63;;
26335;SDS011;14047;50.936;4.654;2023-06-22T12:59:49;46.83;;;33.17;;
26335;SDS011;14047;50.936;4.654;2023-06-22T13:02:15;47.85;;;32.45;;
26335;SDS011;14047;50.936;4.654;2023-06-22T13:04:41;43.10;;;31.35;;
26335;SDS011;14047;50.936;4.654;2023-06-22T13:07:08;46.33;;;34.20;;
26335;SDS011;14047;50.936;4.654;2023-06-22T13:09:35;46.92;;;33.40;;
26335;SDS011;14047;50.936;4.654;2023-06-22T13:12:02;49.90;;;35.15;;
26335;SDS011;14047;50.936;4.654;2023-06-22T13:14:28;49.67;;;35.50;;
26335;SDS011;14047;50.936;4.654;2023-06-22T13:16:54;45.90;;;33.95;;
26335;SDS011;14047;50.936;4.654;2023-06-22T13:19:20;55.20;;;37.72;;
26335;SDS011;14047;50.936;4.654;2023-06-22T13:21:45;50.22;;;35.47;;
26335;SDS011;14047;50.936;4.654;2023-06-22T13:24:11;51.60;;;36.95;;
26335;SDS011;14047;50.936;4.654;2023-06-22T13:26:37;50.30;;;37.53;;
26335;SDS011;14047;50.936;4.654;2023-06-22T13:29:04;48.55;;;36.42;;
26335;SDS011;14047;50.936;4.654;2023-06-22T13:31:30;52.15;;;36.83;;
26335;SDS011;14047;50.936;4.654;2023-06-22T13:33:55;52.08;;;36.55;;
26335;SDS011;14047;50.936;4.654;2023-06-22T13:36:21;53.25;;;37.42;;
26335;SDS011;14047;50.936;4.654;2023-06-22T13:38:48;58.92;;;39.42;;
26335;SDS011;14047;50.936;4.654;2023-06-22T13:41:14;55.25;;;38.47;;
26335;SDS011;14047;50.936;4.654;2023-06-22T13:43:40;52.40;;;37.53;;
26335;SDS011;14047;50.936;4.654;2023-06-22T13:46:06;62.83;;;38.15;;
26335;SDS011;14047;50.936;4.654;2023-06-22T13:48:32;57.78;;;38.90;;
26335;SDS011;14047;50.936;4.654;2023-06-22T13:50:58;60.00;;;39.55;;
26335;SDS011;14047;50.936;4.654;2023-06-22T13:53:24;57.00;;;39.45;;
26335;SDS011;14047;50.936;4.654;2023-06-22T13:55:51;56.78;;;38.80;;
26335;SDS011;14047;50.936;4.654;2023-06-22T13:58:17;54.42;;;39.25;;
26335;SDS011;14047;50.936;4.654;2023-06-22T14:00:45;58.67;;;39.95;;
26335;SDS011;14047;50.936;4.654;2023-06-22T14:03:11;53.55;;;38.65;;
26335;SDS011;14047;50.936;4.654;2023-06-22T14:05:37;55.33;;;38.75;;
26335;SDS011;14047;50.936;4.654;2023-06-22T14:08:11;52.75;;;39.05;;
26335;SDS011;14047;50.936;4.654;2023-06-22T14:10:37;56.10;;;39.28;;
26335;SDS011;14047;50.936;4.654;2023-06-22T14:13:03;50.42;;;35.90;;
26335;SDS011;14047;50.936;4.654;2023-06-22T14:15:31;51.85;;;37.22;;
26335;SDS011;14047;50.936;4.654;2023-06-22T14:17:57;52.58;;;37.90;;
26335;SDS011;14047;50.936;4.654;2023-06-22T14:20:23;56.25;;;38.67;;
26335;SDS011;14047;50.936;4.654;2023-06-22T14:22:49;56.72;;;39.00;;
26335;SDS011;14047;50.936;4.654;2023-06-22T14:25:15;57.78;;;40.20;;
26335;SDS011;14047;50.936;4.654;2023-06-22T14:27:41;57.80;;;39.55;;
26335;SDS011;14047;50.936;4.654;2023-06-22T14:30:09;53.97;;;37.28;;
26335;SDS011;14047;50.936;4.654;2023-06-22T14:32:35;54.20;;;39.33;;
26335;SDS011;14047;50.936;4.654;2023-06-22T14:35:01;57.60;;;40.40;;
26335;SDS011;14047;50.936;4.654;2023-06-22T14:37:27;56.00;;;41.33;;
26335;SDS011;14047;50.936;4.654;2023-06-22T14:39:53;55.88;;;40.80;;
26335;SDS011;14047;50.936;4.654;2023-06-22T14:42:19;48.38;;;36.70;;
26335;SDS011;14047;50.936;4.654;2023-06-22T14:44:46;58.25;;;41.03;;
26335;SDS011;14047;50.936;4.654;2023-06-22T14:47:12;60.47;;;41.53;;
26335;SDS011;14047;50.936;4.654;2023-06-22T14:49:38;58.20;;;41.72;;
26335;SDS011;14047;50.936;4.654;2023-06-22T14:52:06;62.88;;;43.72;;
26335;SDS011;14047;50.936;4.654;2023-06-22T14:54:32;68.13;;;44.17;;
26335;SDS011;14047;50.936;4.654;2023-06-22T14:56:58;56.00;;;41.15;;
26335;SDS011;14047;50.936;4.654;2023-06-22T14:59:24;64.03;;;42.97;;
26335;SDS011;14047;50.936;4.654;2023-06-22T15:01:50;64.40;;;43.55;;
26335;SDS011;14047;50.936;4.654;2023-06-22T15:04:16;64.95;;;43.63;;
26335;SDS011;14047;50.936;4.654;2023-06-22T15:06:42;62.45;;;43.50;;
26335;SDS011;14047;50.936;4.654;2023-06-22T15:09:09;69.05;;;43.42;;
26335;SDS011;14047;50.936;4.654;2023-06-22T15:11:35;59.72;;;43.67;;
26335;SDS011;14047;50.936;4.654;2023-06-22T15:14:01;64.50;;;45.03;;
26335;SDS011;14047;50.936;4.654;2023-06-22T15:16:27;60.17;;;41.53;;